Flight Track Log - Related Links

Times and Time Zones

All times are in EDT time to prevent confusion due to time zone crossing. See the C-FYJH flight status page for this flight to view local times or setup timezone preferences in your user account.

Time Position Orientation Groundspeed Altitude Reporting Facility
EDT Latitude Longitude Course Direction KTS MPH feet Rate Location/Type
Sun 07:30:15 PM 44.8946 -63.4684 288° West  Level FlightAware Approximate
Sun 07:31:15 PM 44.9493 -63.3101 260° West  Level FlightAware Approximate
Sun 07:32:23 PM 44.9167 -63.5667 55° Northeast 140 161 4,500  Level Moncton Center
Sun 07:33:23 PM 44.9500 -63.5000 65° Northeast 220 253 6,600 2,700 Climbing Moncton Center
Sun 07:34:23 PM 44.9833 -63.4000 68° East 270 311 9,900 2,500 Climbing Moncton Center
Sun 07:35:23 PM 45.0167 -63.2833 70° East 320 368 11,600 2,050 Climbing Moncton Center
Sun 07:36:23 PM 45.0500 -63.1500 65° Northeast 380 437 14,000 2,800 Climbing Moncton Center
Sun 07:37:23 PM 45.1000 -63.0000 65° Northeast 400 460 17,200 2,850 Climbing Moncton Center
Sun 07:38:23 PM 45.1500 -62.8500 70° East 400 460 19,700 2,300 Climbing Moncton Center
Sun 07:39:23 PM 45.1833 -62.7167 74° East 420 483 21,800 2,100 Climbing Moncton Center
Sun 07:40:23 PM 45.2167 -62.5500 67° East 430 495 23,900 1,700 Climbing Moncton Center
Sun 07:41:23 PM 45.2667 -62.3833 63° Northeast 440 506 25,200 1,550 Climbing Moncton Center
Sun 07:42:23 PM 45.3333 -62.2000 74° East 460 529 27,000 1,500 Climbing Moncton Center
Sun 07:43:23 PM 45.3667 -62.0333 63° Northeast 460 529 28,200 1,500 Climbing Moncton Center
Sun 07:44:23 PM 45.4333 -61.8500 74° East 480 552 30,000 1,300 Climbing Moncton Center
Sun 07:45:23 PM 45.4667 -61.6833 69° East 480 552 30,800 1,200 Climbing Moncton Center
Sun 07:46:23 PM 45.5167 -61.5000 69° East 480 552 32,400 1,500 Climbing Moncton Center
Sun 07:47:23 PM 45.5667 -61.3167 67° East 490 564 33,800 1,350 Climbing Moncton Center
Sun 07:48:23 PM 45.6167 -61.1500 69° East 480 552 35,100 1,150 Climbing Moncton Center
Sun 07:49:23 PM 45.6667 -60.9667 69° East 480 552 36,100 900 Climbing Moncton Center
Sun 07:50:23 PM 45.7167 -60.7833 69° East 480 552 36,900 450 Climbing Moncton Center
Sun 07:51:23 PM 45.7667 -60.6000 80° East 480 552 37,000 59 Climbing Moncton Center
Sun 07:52:05 PM 45.7833 -60.4667 67° East 490 564 37,000  Level Gander Center
Sun 07:53:05 PM 45.8333 -60.3000 70° East 500 575 37,000  Level Gander Center
Sun 07:54:05 PM 45.8833 -60.1000 69° East 500 575 37,000  Level Gander Center
Sun 07:55:05 PM 45.9333 -59.9167 70° East 500 575 37,000  Level Gander Center
Sun 07:56:05 PM 45.9833 -59.7167 67° East 500 575 37,000  Level Gander Center
Sun 07:57:05 PM 46.0333 -59.5500 64° Northeast 500 575 37,000  Level Gander Center
Sun 07:58:05 PM 46.1000 -59.3500 75° East 510 587 37,000  Level Gander Center
Sun 07:59:05 PM 46.1333 -59.1667 70° East 510 587 37,000  Level Gander Center
Sun 08:00:05 PM 46.1833 -58.9667 70° East 510 587 37,000  Level Gander Center
Sun 08:01:05 PM 46.2333 -58.7667 68° East 510 587 37,000  Level Gander Center
Sun 08:02:05 PM 46.2833 -58.5833 76° East 510 587 37,000  Level Gander Center
Sun 08:03:05 PM 46.3167 -58.3833 70° East 500 575 37,000  Level Gander Center
Sun 08:04:05 PM 46.3667 -58.1833 66° East 500 575 37,000  Level Gander Center
Sun 08:05:05 PM 46.4167 -58.0167 76° East 500 575 37,000  Level Gander Center
Sun 08:06:05 PM 46.4500 -57.8167 70° East 510 587 37,000  Level Gander Center
Sun 08:07:05 PM 46.5000 -57.6167 70° East 510 587 37,000  Level Gander Center
Sun 08:08:05 PM 46.5500 -57.4167 76° East 510 587 37,000  Level Gander Center
Sun 08:09:05 PM 46.5833 -57.2167 68° East 510 587 37,000  Level Gander Center
Sun 08:10:05 PM 46.6333 -57.0333 75° East 510 587 37,000  Level Gander Center
Sun 08:11:05 PM 46.6667 -56.8500 71° East 510 587 37,000  Level Gander Center
Sun 08:12:05 PM 46.7167 -56.6333 75° East 510 587 37,000  Level Gander Center
Sun 08:13:05 PM 46.7500 -56.4500 64° Northeast 510 587 37,000  Level Gander Center
Sun 08:14:05 PM 46.8167 -56.2500 84° East 510 587 37,000  Level Gander Center
Sun 08:15:05 PM 46.8333 -56.0333 62° Northeast 510 587 37,000  Level Gander Center
Sun 08:16:05 PM 46.9000 -55.8500 77° East 510 587 37,000  Level Gander Center
Sun 08:17:05 PM 46.9333 -55.6333 68° East 520 598 37,000  Level Gander Center
Sun 08:18:05 PM 46.9833 -55.4500 76° East 520 598 37,000  Level Gander Center
Sun 08:19:05 PM 47.0167 -55.2500 77° East 520 598 37,000  Level Gander Center
Sun 08:20:05 PM 47.0500 -55.0333 68° East 520 598 37,000  Level Gander Center
Sun 08:21:05 PM 47.1000 -54.8500 77° East 520 598 37,000 -300 Level Gander Center
Sun 08:22:05 PM 47.1333 -54.6333 71° East 520 598 36,400 -2,000 Descending Gander Center
Sun 08:23:05 PM 47.1833 -54.4167 76° East 520 598 33,000 -3,500 Descending Gander Center
Sun 08:24:05 PM 47.2167 -54.2167 77° East 550 633 29,400 -3,550 Descending Gander Center
Sun 08:25:05 PM 47.2500 -54.0000 71° East 550 633 25,900 -4,300 Descending Gander Center
Sun 08:26:05 PM 47.3000 -53.7833 68° East 530 610 20,800 -4,850 Descending Gander Center
Sun 08:27:05 PM 47.3500 -53.6000 82° East 500 575 16,200 -3,950 Descending Gander Center
Sun 08:28:05 PM 47.3667 -53.4333 50° Northeast 450 518 12,900 -2,300 Descending Gander Center
Sun 08:29:05 PM 47.4333 -53.3167 40° Northeast 370 426 11,600 -1,800 Descending Gander Center
Sun 08:30:05 PM 47.5000 -53.2333 27° Northeast 330 380 9,300 -2,150 Descending Gander Center
Sun 08:31:05 PM 47.5667 -53.1833 39° Northeast 310 357 7,300 -1,900 Descending Gander Center
Sun 08:32:05 PM 47.6500 -53.0833 27° Northeast 300 345 5,500 -1,650 Descending Gander Center
Sun 08:33:05 PM 47.7167 -53.0333 73° East 290 334 4,000 -1,050 Descending Gander Center
Sun 08:34:05 PM 47.7333 -52.9500 90° East 250 288 3,400 -300 Descending Gander Center
Sun 08:35:05 PM 47.7333 -52.8500 146° Southeast 220 253 3,400 -300 Level Gander Center
Sun 08:36:05 PM 47.7000 -52.8167 146° Southeast 180 207 2,800 -800 Descending Gander Center
Sun 08:37:05 PM 47.6500 -52.7667 116° Southeast 170 196 1,800 -850 Descending Gander Center
Sun 08:38:05 PM 47.6333 -52.7167 116° Southeast 130 150 1,100 -700 Descending Gander Center

Login

Don't have an account? Register now (free) for customized features, flight alerts, and more!